Time;durP1;ratioP1;P1;durP2;ratioP2;P2;SDS_P1;SDS_P2;PMS_P1;PMS_P2;Temp;Humidity;BMP_temperature;BMP_pressure;BME280_temperature;BME280_humidity;BME280_pressure;Samples;Min_cycle;Max_cycle;Signal;HPM_P1;HPM_P2
2021/12/26 00:01:53;;;;;;;1.63;1.00;;;;;;;13.30;38.45;100842.59;19745880;30;20105;-74
2021/12/26 00:11:58;;;;;;;1.50;1.20;;;;;;;13.31;38.53;100824.72;19744540;30;20151;-72
2021/12/26 00:22:00;;;;;;;1.75;0.90;;;;;;;12.69;38.32;100700.75;19745453;30;20062;-74
2021/12/26 00:32:02;;;;;;;1.65;0.82;;;;;;;13.10;38.29;100769.13;19746122;30;20217;-74
2021/12/26 00:42:04;;;;;;;1.33;0.80;;;;;;;12.85;38.34;100738.81;19744375;30;20056;-74
2021/12/26 00:52:07;;;;;;;1.73;0.98;;;;;;;13.29;38.31;100813.28;19744545;30;20060;-73
2021/12/26 01:02:09;;;;;;;1.67;1.15;;;;;;;12.61;37.74;100683.44;19727908;30;20136;-74
2021/12/26 01:12:14;;;;;;;1.42;1.00;;;;;;;13.23;37.81;100768.25;19712657;30;20072;-74
2021/12/26 01:22:20;;;;;;;1.27;0.88;;;;;;;13.24;37.85;100767.28;19741292;30;20063;-74
2021/12/26 01:32:30;;;;;;;1.48;0.80;;;;;;;13.13;37.73;100747.53;19725633;30;20135;-74
2021/12/26 01:42:33;;;;;;;0.77;0.77;;;;;;;13.23;37.41;100765.56;19740236;30;20067;-73
2021/12/26 01:53:10;;;;;;;1.48;0.80;;;;;;;12.55;37.65;100641.13;19754015;30;20069;-74
2021/12/26 02:03:13;;;;;;;2.15;1.00;;;;;;;13.19;37.59;100746.25;19739691;30;20087;-74
2021/12/26 02:13:15;;;;;;;1.92;1.27;;;;;;;12.89;37.33;100704.69;19736066;30;20060;-74
2021/12/26 02:33:36;;;;;;;1.55;0.95;;;;;;;12.97;37.40;100714.84;19736727;30;20055;-74
2021/12/26 02:43:38;;;;;;;1.50;0.95;;;;;;;13.09;37.07;100730.00;19737501;30;20056;-74
2021/12/26 02:53:40;;;;;;;1.60;0.90;;;;;;;12.89;37.15;100694.00;19705400;30;20052;-74
2021/12/26 03:03:42;;;;;;;0.93;0.75;;;;;;;13.04;37.51;100714.31;19734365;30;20128;-73
2021/12/26 03:13:44;;;;;;;1.33;0.98;;;;;;;12.46;37.05;100607.91;19735635;30;20101;-73
2021/12/26 03:23:46;;;;;;;1.20;0.80;;;;;;;12.49;36.98;100617.53;19725551;30;20059;-74
2021/12/26 03:33:48;;;;;;;1.73;0.98;;;;;;;12.26;36.99;100577.28;19748783;30;20062;-74
2021/12/26 03:43:50;;;;;;;2.17;1.10;;;;;;;13.04;37.04;100700.06;19747261;30;20131;-74
2021/12/26 03:53:52;;;;;;;1.98;1.10;;;;;;;12.94;37.04;100697.19;19731510;30;20530;-74
2021/12/26 04:03:54;;;;;;;1.20;0.93;;;;;;;12.47;36.91;100611.47;19747986;30;20140;-74
2021/12/26 04:13:56;;;;;;;1.10;0.98;;;;;;;12.56;36.89;100637.50;19730322;30;20056;-74
2021/12/26 04:23:58;;;;;;;1.55;1.08;;;;;;;12.87;36.73;100680.75;19744488;30;20126;-74
2021/12/26 04:34:02;;;;;;;1.40;1.00;;;;;;;12.11;36.68;100546.34;19744282;30;20556;-74
2021/12/26 04:44:04;;;;;;;1.77;1.10;;;;;;;12.73;36.77;100639.00;21233146;24;20532;-74
2021/12/26 04:54:19;;;;;;;1.45;0.90;;;;;;;13.01;36.92;100647.69;19669298;30;20068;-74
2021/12/26 05:04:22;;;;;;;1.77;1.10;;;;;;;13.23;36.89;100648.81;19666934;30;20071;-74
2021/12/26 05:14:24;;;;;;;0.98;0.77;;;;;;;12.89;36.45;100582.66;19666511;30;20056;-74
2021/12/26 05:24:26;;;;;;;1.40;0.98;;;;;;;13.02;36.80;100585.25;19665969;30;20060;-74
2021/12/26 05:34:28;;;;;;;2.92;0.98;;;;;;;13.41;36.30;100645.75;19664849;30;20052;-74
2021/12/26 05:44:30;;;;;;;1.33;0.98;;;;;;;12.64;36.52;100515.94;19671814;30;20063;-74
2021/12/26 05:54:35;;;;;;;1.45;0.98;;;;;;;12.95;36.53;100567.13;19640347;30;20511;-74
2021/12/26 06:04:39;;;;;;;1.70;0.90;;;;;;;13.66;36.93;100654.69;19590208;30;20064;-74
2021/12/26 06:14:46;;;;;;;1.38;1.00;;;;;;;13.20;36.61;100552.81;19619243;30;20068;-74
2021/12/26 06:24:48;;;;;;;3.15;1.10;;;;;;;13.80;36.46;100633.09;19574201;30;20066;-74
2021/12/26 06:35:08;;;;;;;1.25;1.00;;;;;;;13.75;36.16;100612.03;19575830;30;20068;-74
2021/12/26 06:45:28;;;;;;;2.80;0.90;;;;;;;13.95;36.56;100620.38;19606473;30;20071;-73
2021/12/26 06:55:49;;;;;;;1.63;1.02;;;;;;;12.45;36.73;100367.75;19661986;30;20064;-73
2021/12/26 07:05:51;;;;;;;2.17;1.13;;;;;;;13.97;36.59;100522.06;19661869;30;20130;-73
2021/12/26 07:15:57;;;;;;;1.73;1.13;;;;;;;14.58;36.66;100609.28;19660358;30;20075;-74
2021/12/26 07:25:59;;;;;;;2.25;1.20;;;;;;;14.62;36.47;100605.38;19661155;30;20060;-74
2021/12/26 07:36:03;;;;;;;1.27;0.98;;;;;;;14.67;36.72;100617.56;19659531;30;20067;-74
2021/12/26 07:46:11;;;;;;;2.50;1.20;;;;;;;14.10;36.85;100527.31;19671093;30;20131;-74
2021/12/26 07:56:14;;;;;;;2.13;1.35;;;;;;;14.07;37.06;100524.88;19661063;30;20056;-74
2021/12/26 08:06:34;;;;;;;2.22;1.10;;;;;;;14.14;37.00;100554.69;19660908;30;20060;-74
2021/12/26 08:16:36;;;;;;;1.95;1.00;;;;;;;14.73;36.96;100644.72;19656625;30;20052;-74
2021/12/26 08:26:39;;;;;;;2.28;1.30;;;;;;;14.29;37.04;100548.16;19671980;30;20060;-74
2021/12/26 08:36:41;;;;;;;1.88;1.20;;;;;;;12.50;36.69;100257.91;19671265;30;20068;-75
2021/12/26 08:46:43;;;;;;;3.45;1.42;;;;;;;14.30;36.93;100515.03;19669313;30;20065;-75
2021/12/26 08:56:45;;;;;;;2.42;1.40;;;;;;;14.87;36.81;100608.78;19668735;30;20056;-76
2021/12/26 09:06:47;;;;;;;1.63;1.33;;;;;;;14.91;36.56;100612.09;19669116;30;20216;-75
2021/12/26 09:16:49;;;;;;;2.13;1.25;;;;;;;14.89;36.34;100598.78;19668154;30;20068;-75
2021/12/26 09:26:51;;;;;;;3.03;1.58;;;;;;;14.84;36.73;100622.44;19667770;30;20143;-74
2021/12/26 09:36:53;;;;;;;2.60;1.40;;;;;;;14.76;37.19;100595.41;19666904;30;20056;-74
2021/12/26 09:46:55;;;;;;;3.35;1.30;;;;;;;14.42;37.28;100536.44;19667487;30;20068;-75
2021/12/26 09:56:56;;;;;;;2.17;1.23;;;;;;;15.03;37.70;100639.75;19665567;30;20120;-72
2021/12/26 10:07:13;;;;;;;2.20;0.90;;;;;;;14.52;37.38;100521.34;19664936;30;20117;-74
2021/12/26 10:17:23;;;;;;;2.60;1.48;;;;;;;14.97;37.73;100584.78;19664953;30;20052;-75
2021/12/26 10:27:29;;;;;;;2.42;1.30;;;;;;;14.47;37.67;100483.38;19662895;30;20094;-75
2021/12/26 10:37:36;;;;;;;2.60;1.27;;;;;;;15.14;38.27;100569.13;19675980;30;20052;-75
2021/12/26 10:47:41;;;;;;;2.35;1.27;;;;;;;15.18;37.61;100554.50;19661173;30;20518;-75
2021/12/26 10:57:48;;;;;;;1.87;1.40;;;;;;;15.21;38.11;100536.34;19690598;30;20090;-75
2021/12/26 11:07:57;;;;;;;1.80;1.40;;;;;;;15.29;38.08;100535.69;19690405;30;20156;-75
2021/12/26 11:18:05;;;;;;;2.00;1.30;;;;;;;14.68;37.99;100413.78;19661401;30;20064;-75
2021/12/26 11:28:07;;;;;;;1.83;1.38;;;;;;;15.02;37.63;100440.50;19661108;30;20067;-75
2021/12/26 11:38:11;;;;;;;2.53;1.40;;;;;;;15.33;38.21;100475.47;19689055;30;20064;-75
2021/12/26 11:48:39;;;;;;;1.92;1.23;;;;;;;15.43;38.37;100482.72;19671305;30;20064;-74
2021/12/26 11:59:18;;;;;;;2.70;1.42;;;;;;;15.44;38.40;100479.88;19674057;30;20146;-79
2021/12/26 12:09:34;;;;;;;3.33;1.33;;;;;;;15.06;38.33;100425.84;19673327;30;20074;-76
2021/12/26 12:19:36;;;;;;;1.38;1.08;;;;;;;14.80;38.60;100369.06;19672733;30;20052;-76
2021/12/26 12:29:39;;;;;;;2.13;1.50;;;;;;;15.48;37.95;100450.97;19670645;30;20503;-81
2021/12/26 12:40:07;;;;;;;5.20;1.98;;;;;;;15.49;38.05;100434.78;19670971;30;20059;-74
2021/12/26 12:50:09;;;;;;;4.80;1.90;;;;;;;15.30;38.89;100368.44;19670099;30;20064;-75
2021/12/26 13:00:26;;;;;;;3.95;1.83;;;;;;;15.85;38.69;100414.72;19669460;30;20117;-75
2021/12/26 13:10:28;;;;;;;3.60;1.60;;;;;;;16.45;37.38;100408.59;19670441;30;20067;-75
2021/12/26 13:20:33;;;;;;;3.05;1.55;;;;;;;16.08;37.04;100316.91;19667340;30;20128;-75
2021/12/26 13:30:39;;;;;;;2.85;1.70;;;;;;;16.45;37.08;100425.56;19666541;30;20063;-73
2021/12/26 13:40:49;;;;;;;3.25;1.70;;;;;;;16.06;37.42;100409.34;19666147;30;20052;-74
2021/12/26 13:50:51;;;;;;;3.35;1.83;;;;;;;15.31;37.54;100312.97;19666397;30;20056;-76
2021/12/26 14:00:56;;;;;;;2.58;1.52;;;;;;;15.60;37.89;100403.47;19664237;30;20060;-76
2021/12/26 14:11:01;;;;;;;2.97;1.80;;;;;;;15.47;37.80;100404.53;19664492;30;20447;-74
2021/12/26 14:21:06;;;;;;;2.67;1.60;;;;;;;15.34;38.09;100403.88;19664297;30;20537;-75
2021/12/26 14:31:25;;;;;;;3.58;2.00;;;;;;;14.70;38.11;100288.59;19663777;30;20072;-74
2021/12/26 14:41:38;;;;;;;2.60;1.77;;;;;;;14.81;38.31;100298.41;19691396;30;20071;-75
2021/12/26 14:51:41;;;;;;;2.20;1.70;;;;;;;15.18;38.30;100358.75;19691301;30;20068;-74
2021/12/26 15:01:43;;;;;;;2.80;1.65;;;;;;;15.33;38.26;100365.50;19661139;30;20060;-74
2021/12/26 15:11:44;;;;;;;2.22;1.70;;;;;;;15.31;38.03;100358.56;19663004;30;20064;-74
2021/12/26 15:22:04;;;;;;;1.98;1.50;;;;;;;14.90;37.72;100278.88;19670732;30;20469;-74
2021/12/26 15:32:12;;;;;;;2.50;1.70;;;;;;;15.25;37.79;100329.59;19660307;30;20107;-74
2021/12/26 15:42:14;;;;;;;2.33;1.40;;;;;;;15.38;38.19;100330.22;19675040;30;20077;-74
2021/12/26 15:52:16;;;;;;;2.55;1.90;;;;;;;14.73;37.88;100220.53;19674081;30;20427;-74
2021/12/26 16:02:17;;;;;;;2.13;1.92;;;;;;;14.77;38.19;100230.00;19673624;30;20052;-74
2021/12/26 16:12:20;;;;;;;2.28;1.75;;;;;;;15.44;38.22;100337.72;19671812;30;20060;-74
2021/12/26 16:22:22;;;;;;;2.83;1.92;;;;;;;14.88;37.76;100242.47;19672158;30;20056;-74
2021/12/26 16:32:24;;;;;;;2.35;1.90;;;;;;;15.44;38.13;100334.19;19669592;30;20053;-74
2021/12/26 16:42:26;;;;;;;2.10;1.90;;;;;;;15.50;38.25;100334.53;19670777;30;20412;-73
2021/12/26 16:52:27;;;;;;;2.40;2.15;;;;;;;15.53;38.16;100319.97;19669685;30;20110;-73
2021/12/26 17:02:30;;;;;;;3.00;1.98;;;;;;;15.24;37.99;100272.41;19669428;30;20064;-73
2021/12/26 17:12:33;;;;;;;3.78;2.10;;;;;;;15.34;37.61;100289.41;19667744;30;20067;-73
2021/12/26 17:22:34;;;;;;;2.53;1.95;;;;;;;15.49;37.85;100300.63;19668171;30;20072;-73
2021/12/26 17:32:38;;;;;;;3.60;2.08;;;;;;;14.91;37.99;100200.16;19667579;30;20400;-73
2021/12/26 17:42:40;;;;;;;3.55;2.40;;;;;;;15.48;37.90;100271.25;19666679;30;20064;-74
2021/12/26 17:52:42;;;;;;;3.22;2.55;;;;;;;15.56;37.68;100297.41;19664146;30;20491;-75
2021/12/26 18:02:45;;;;;;;4.85;2.83;;;;;;;15.21;37.71;100238.69;19665565;30;20052;-73
2021/12/26 18:12:47;;;;;;;3.65;2.90;;;;;;;14.87;37.96;100155.84;19664927;30;20056;-74
2021/12/26 18:22:53;;;;;;;4.25;2.97;;;;;;;15.42;37.99;100253.00;19663191;30;20056;-73
2021/12/26 18:32:56;;;;;;;3.65;2.58;;;;;;;14.92;37.78;100156.28;19663579;30;20473;-73
2021/12/26 18:43:03;;;;;;;4.10;2.90;;;;;;;15.32;38.37;100231.50;19676182;30;20060;-72
2021/12/26 18:53:06;;;;;;;4.28;3.13;;;;;;;14.93;38.26;100147.28;19661677;30;20121;-75
2021/12/26 19:03:09;;;;;;;4.30;3.05;;;;;;;15.37;37.94;100229.28;19661275;30;20078;-74
2021/12/26 19:13:11;;;;;;;7.38;3.25;;;;;;;15.50;38.19;100239.75;19660852;30;20404;-75
2021/12/26 19:23:13;;;;;;;5.68;3.53;;;;;;;15.59;38.60;100240.78;19661428;30;20064;-74
2021/12/26 19:33:15;;;;;;;4.28;3.22;;;;;;;13.90;38.61;99961.59;19660565;30;20090;-74
2021/12/26 19:43:17;;;;;;;3.55;2.95;;;;;;;15.59;38.46;100219.31;19645101;30;20064;-74
2021/12/26 19:53:19;;;;;;;4.50;3.17;;;;;;;15.08;38.33;100120.13;19660425;30;20067;-74
2021/12/26 20:03:21;;;;;;;4.90;3.42;;;;;;;15.05;38.49;100110.50;19662080;30;20060;-74
2021/12/26 20:13:29;;;;;;;5.13;3.60;;;;;;;15.63;38.37;100202.78;19672962;30;20060;-74
2021/12/26 20:23:31;;;;;;;5.25;3.80;;;;;;;15.70;38.44;100227.25;19672724;30;20128;-73
2021/12/26 20:33:33;;;;;;;4.38;3.50;;;;;;;14.57;38.34;100010.19;19671841;30;20056;-73
2021/12/26 20:43:35;;;;;;;5.22;3.67;;;;;;;15.46;38.23;100139.91;19670944;30;20071;-73
2021/12/26 20:53:38;;;;;;;4.13;3.30;;;;;;;15.69;38.65;100174.56;19666820;30;20063;-73
2021/12/26 21:03:40;;;;;;;4.28;3.20;;;;;;;14.94;38.22;100055.16;19669574;30;20118;-73
2021/12/26 21:13:43;;;;;;;4.90;3.53;;;;;;;15.27;38.75;100097.00;19667310;30;20059;-73
2021/12/26 21:23:44;;;;;;;4.65;3.83;;;;;;;15.28;38.58;100085.28;19668127;30;20573;-73
2021/12/26 21:33:46;;;;;;;5.28;3.92;;;;;;;15.76;38.41;100154.22;19667529;30;20068;-73
2021/12/26 21:43:48;;;;;;;6.47;3.95;;;;;;;15.68;38.73;100147.84;19666765;30;20090;-73
2021/12/26 21:53:50;;;;;;;4.88;3.80;;;;;;;15.29;38.96;100073.56;19660351;30;20082;-73
2021/12/26 22:03:52;;;;;;;6.13;4.13;;;;;;;15.73;38.98;100130.34;19665491;30;20052;-73
2021/12/26 22:13:53;;;;;;;4.35;3.13;;;;;;;15.75;38.58;100131.06;19663459;30;20118;-73
2021/12/26 22:23:55;;;;;;;5.15;3.42;;;;;;;15.74;38.61;100136.59;19664073;30;20067;-73
2021/12/26 22:33:57;;;;;;;4.22;3.47;;;;;;;15.20;38.82;100046.59;19663072;30;20111;-74
2021/12/26 22:43:59;;;;;;;4.80;3.70;;;;;;;15.21;38.58;100029.53;19663077;30;20063;-74
2021/12/26 22:54:00;;;;;;;4.22;3.63;;;;;;;15.83;38.76;100122.31;19661198;30;20059;-74
2021/12/26 23:04:02;;;;;;;5.40;4.38;;;;;;;15.80;38.73;100110.00;19661934;30;20457;-74
2021/12/26 23:14:04;;;;;;;6.15;4.50;;;;;;;15.85;38.63;100089.94;19661696;30;20071;-74
2021/12/26 23:24:07;;;;;;;5.00;4.07;;;;;;;15.70;38.57;100093.06;19660047;30;20088;-73
2021/12/26 23:34:08;;;;;;;5.35;4.20;;;;;;;15.44;38.40;99997.06;19660228;30;20044;-74
2021/12/26 23:44:10;;;;;;;5.22;4.15;;;;;;;15.78;38.74;100047.59;19672951;30;20067;-73
2021/12/26 23:54:12;;;;;;;4.88;4.00;;;;;;;14.86;39.05;99877.31;19670833;30;20118;-74
